Allen, SD (57714)

9:26 AM MDT on August 29, 2014 (GMT -0600)
RAWS PORCUPINE SD US | Change Station
CLOSE
Current Station
Personal Weather Station
Location: Porcupine, SD
Elevation: 3786 ft
Nearby Weather Stations

Elev 3786 ft 43.29 °N, 102.27 °W | Updated 45 minutes ago

Partly Cloudy
Partly Cloudy
67 °F
Feels Like 67 °F
N
17
Wind Variable Wind from WNW
Gusts 27.0 mph

Today
High -- | Low -- °F
--% Chance of Precip.
Yesterday
High -- | Low -- °F
Precip. -- in
6:08 AM 7:27 PM
Waxing Crescent, 15% visible
Pressure 29.90 in
Visibility 10.0 miles
Clouds Clear
Dew Point 57 °F
Humidity 71%
Rainfall 0.02 in
Snow Depth Not available.
UV 1 out of 12
Pollen 9.70 out of 12
Air Quality Not available.
Flu Activity Not available.
METAR KIEN 291352Z AUTO 00000KT 10SM CLR 14/12 A2995 RMK AO2 SLP124 T01440122

More Conditions Fewer Conditions

Pressure 29.90 in
Visibility 10.0 miles
Clouds Clear
Dew Point 57 °F
Humidity 71%
Rainfall 0.02 in
Snow Depth Not available.
UV 1 out of 12
Pollen 9.70 out of 12
Air Quality Not available.
Flu Activity Not available.
METAR KIEN 291352Z AUTO 00000KT 10SM CLR 14/12 A2995 RMK AO2 SLP124 T01440122

More Conditions Fewer Conditions

10-Day Weather Forecast

Almanac

Astronomy

Aug. 29, 2014 Rise Set
Actual Time 6:08 AM MDT 7:27 PM MDT
Civil Twilight 5:38 AM MDT 7:57 PM MDT
Nautical Twilight 5:03 AM MDT 8:32 PM MDT
Astronomical Twilight 4:25 AM MDT 9:10 PM MDT
Moon 10:07 AM MDT 9:18 PM MDT
Length of Visible Light 14h 18m
Length of Day
13h 19m
Tomorrow will be 2m 49s shorter.
Waxing Crescent, 15% of the Moon is Illuminated
Today
Waxing Crescent
Sep 2
First Quarter
Sep 8
Full
Sep 15
Last Quarter
Sep 24
New

Today's Extremes

State Highs State Lows

Community

WunderPhotos

Upload Photos

1,748,263 photos uploaded!

Nearby

Snow Depth

Station Depth Elevation
Blind Park 0 in 6890 ft

Earthquake Activity

City Distance Mag. Time & Date
No recent earthquake activity has been reported nearby.
Minimum magnitude displayed is 2.5.

Coastal Water Temperatures

Place Temperature
No Stations Reporting

Nearby Weather Stations